sensor_id;sensor_type;location;lat;lon;timestamp;P1;durP1;ratioP1;P2;durP2;ratioP2
50968;SDS011;36982;51.474;7.228;2024-01-15T00:02:22;19.03;;;10.50;;
50968;SDS011;36982;51.474;7.228;2024-01-15T00:04:47;19.27;;;10.77;;
50968;SDS011;36982;51.474;7.228;2024-01-15T00:07:13;20.10;;;10.90;;
50968;SDS011;36982;51.474;7.228;2024-01-15T00:09:39;18.33;;;9.70;;
50968;SDS011;36982;51.474;7.228;2024-01-15T00:12:05;21.70;;;10.57;;
50968;SDS011;36982;51.474;7.228;2024-01-15T00:14:31;18.57;;;9.57;;
50968;SDS011;36982;51.474;7.228;2024-01-15T00:16:56;14.87;;;8.33;;
50968;SDS011;36982;51.474;7.228;2024-01-15T00:19:22;16.77;;;9.57;;
50968;SDS011;36982;51.474;7.228;2024-01-15T00:21:48;19.70;;;10.07;;
50968;SDS011;36982;51.474;7.228;2024-01-15T00:24:14;19.77;;;10.37;;
50968;SDS011;36982;51.474;7.228;2024-01-15T00:26:39;22.17;;;11.20;;
50968;SDS011;36982;51.474;7.228;2024-01-15T00:29:09;17.80;;;9.83;;
50968;SDS011;36982;51.474;7.228;2024-01-15T00:31:35;19.73;;;9.73;;
50968;SDS011;36982;51.474;7.228;2024-01-15T00:34:01;20.40;;;9.83;;
50968;SDS011;36982;51.474;7.228;2024-01-15T00:36:27;18.50;;;10.87;;
50968;SDS011;36982;51.474;7.228;2024-01-15T00:38:52;18.90;;;9.80;;
50968;SDS011;36982;51.474;7.228;2024-01-15T00:41:18;15.50;;;8.90;;
50968;SDS011;36982;51.474;7.228;2024-01-15T00:43:44;15.07;;;9.30;;
50968;SDS011;36982;51.474;7.228;2024-01-15T00:46:10;16.03;;;8.50;;
50968;SDS011;36982;51.474;7.228;2024-01-15T00:48:36;21.40;;;8.63;;
50968;SDS011;36982;51.474;7.228;2024-01-15T00:51:02;15.63;;;7.90;;
50968;SDS011;36982;51.474;7.228;2024-01-15T00:53:28;14.53;;;7.50;;
50968;SDS011;36982;51.474;7.228;2024-01-15T00:55:54;19.83;;;9.10;;
50968;SDS011;36982;51.474;7.228;2024-01-15T00:58:20;15.77;;;8.23;;
50968;SDS011;36982;51.474;7.228;2024-01-15T01:00:45;16.37;;;8.27;;
50968;SDS011;36982;51.474;7.228;2024-01-15T01:03:11;17.20;;;8.23;;
50968;SDS011;36982;51.474;7.228;2024-01-15T01:05:37;14.87;;;8.27;;
50968;SDS011;36982;51.474;7.228;2024-01-15T01:08:03;16.87;;;8.90;;
50968;SDS011;36982;51.474;7.228;2024-01-15T01:10:28;15.33;;;8.60;;
50968;SDS011;36982;51.474;7.228;2024-01-15T01:12:54;13.30;;;8.33;;
50968;SDS011;36982;51.474;7.228;2024-01-15T01:15:20;13.87;;;8.27;;
50968;SDS011;36982;51.474;7.228;2024-01-15T01:17:46;20.43;;;9.00;;
50968;SDS011;36982;51.474;7.228;2024-01-15T01:20:12;15.83;;;9.17;;
50968;SDS011;36982;51.474;7.228;2024-01-15T01:22:37;17.13;;;8.67;;
50968;SDS011;36982;51.474;7.228;2024-01-15T01:25:04;15.57;;;8.20;;
50968;SDS011;36982;51.474;7.228;2024-01-15T01:27:30;13.93;;;8.17;;
50968;SDS011;36982;51.474;7.228;2024-01-15T01:29:55;16.17;;;8.43;;
50968;SDS011;36982;51.474;7.228;2024-01-15T01:32:21;16.57;;;8.40;;
50968;SDS011;36982;51.474;7.228;2024-01-15T01:34:46;15.33;;;8.30;;
50968;SDS011;36982;51.474;7.228;2024-01-15T01:37:12;13.63;;;7.67;;
50968;SDS011;36982;51.474;7.228;2024-01-15T01:39:41;15.90;;;8.83;;
50968;SDS011;36982;51.474;7.228;2024-01-15T01:42:07;16.13;;;8.17;;
50968;SDS011;36982;51.474;7.228;2024-01-15T01:44:33;15.83;;;8.57;;
50968;SDS011;36982;51.474;7.228;2024-01-15T01:46:59;17.60;;;8.70;;
50968;SDS011;36982;51.474;7.228;2024-01-15T01:49:25;16.10;;;8.40;;
50968;SDS011;36982;51.474;7.228;2024-01-15T01:51:52;14.00;;;8.57;;
50968;SDS011;36982;51.474;7.228;2024-01-15T01:54:18;16.80;;;9.10;;
50968;SDS011;36982;51.474;7.228;2024-01-15T01:56:45;21.83;;;10.23;;
50968;SDS011;36982;51.474;7.228;2024-01-15T01:59:13;16.83;;;9.03;;
50968;SDS011;36982;51.474;7.228;2024-01-15T02:01:39;15.77;;;8.70;;
50968;SDS011;36982;51.474;7.228;2024-01-15T02:04:05;16.27;;;9.30;;
50968;SDS011;36982;51.474;7.228;2024-01-15T02:06:31;18.73;;;9.50;;
50968;SDS011;36982;51.474;7.228;2024-01-15T02:08:56;14.13;;;8.23;;
50968;SDS011;36982;51.474;7.228;2024-01-15T02:11:22;18.80;;;8.83;;
50968;SDS011;36982;51.474;7.228;2024-01-15T02:13:48;15.67;;;7.73;;
50968;SDS011;36982;51.474;7.228;2024-01-15T02:16:14;14.63;;;8.27;;
50968;SDS011;36982;51.474;7.228;2024-01-15T02:18:43;13.23;;;5.47;;
50968;SDS011;36982;51.474;7.228;2024-01-15T02:21:09;13.47;;;7.60;;
50968;SDS011;36982;51.474;7.228;2024-01-15T02:23:35;13.87;;;7.30;;
50968;SDS011;36982;51.474;7.228;2024-01-15T02:26:02;14.90;;;7.93;;
50968;SDS011;36982;51.474;7.228;2024-01-15T02:28:28;16.80;;;7.37;;
50968;SDS011;36982;51.474;7.228;2024-01-15T02:30:54;16.57;;;7.47;;
50968;SDS011;36982;51.474;7.228;2024-01-15T02:33:19;11.43;;;6.83;;
50968;SDS011;36982;51.474;7.228;2024-01-15T02:35:45;13.83;;;6.13;;
50968;SDS011;36982;51.474;7.228;2024-01-15T02:38:15;16.93;;;7.67;;
50968;SDS011;36982;51.474;7.228;2024-01-15T02:40:41;11.83;;;6.87;;
50968;SDS011;36982;51.474;7.228;2024-01-15T02:43:07;10.90;;;6.73;;
50968;SDS011;36982;51.474;7.228;2024-01-15T02:45:33;11.27;;;6.33;;
50968;SDS011;36982;51.474;7.228;2024-01-15T02:47:59;10.87;;;5.90;;
50968;SDS011;36982;51.474;7.228;2024-01-15T02:50:24;14.13;;;7.07;;
50968;SDS011;36982;51.474;7.228;2024-01-15T02:52:50;11.13;;;6.50;;
50968;SDS011;36982;51.474;7.228;2024-01-15T02:55:15;15.27;;;7.43;;
50968;SDS011;36982;51.474;7.228;2024-01-15T02:57:41;11.37;;;6.43;;
50968;SDS011;36982;51.474;7.228;2024-01-15T03:00:07;13.50;;;7.20;;
50968;SDS011;36982;51.474;7.228;2024-01-15T03:02:33;12.77;;;7.33;;
50968;SDS011;36982;51.474;7.228;2024-01-15T03:05:02;11.53;;;5.87;;
50968;SDS011;36982;51.474;7.228;2024-01-15T03:07:28;14.10;;;6.57;;
50968;SDS011;36982;51.474;7.228;2024-01-15T03:09:53;12.60;;;6.00;;
50968;SDS011;36982;51.474;7.228;2024-01-15T03:12:19;12.87;;;6.63;;
50968;SDS011;36982;51.474;7.228;2024-01-15T03:14:44;9.30;;;5.63;;
50968;SDS011;36982;51.474;7.228;2024-01-15T03:17:10;12.83;;;5.97;;
50968;SDS011;36982;51.474;7.228;2024-01-15T03:19:37;13.83;;;6.20;;
50968;SDS011;36982;51.474;7.228;2024-01-15T03:22:02;12.73;;;6.43;;
50968;SDS011;36982;51.474;7.228;2024-01-15T03:24:28;12.50;;;6.20;;
50968;SDS011;36982;51.474;7.228;2024-01-15T03:26:54;8.87;;;5.47;;
50968;SDS011;36982;51.474;7.228;2024-01-15T03:29:20;10.93;;;6.17;;
50968;SDS011;36982;51.474;7.228;2024-01-15T03:31:46;16.60;;;5.73;;
50968;SDS011;36982;51.474;7.228;2024-01-15T03:34:11;12.53;;;5.80;;
50968;SDS011;36982;51.474;7.228;2024-01-15T03:36:37;10.30;;;5.00;;
50968;SDS011;36982;51.474;7.228;2024-01-15T03:39:02;13.90;;;5.93;;
50968;SDS011;36982;51.474;7.228;2024-01-15T03:41:28;13.03;;;6.27;;
50968;SDS011;36982;51.474;7.228;2024-01-15T03:43:53;10.17;;;5.43;;
50968;SDS011;36982;51.474;7.228;2024-01-15T03:46:19;10.33;;;6.10;;
50968;SDS011;36982;51.474;7.228;2024-01-15T03:48:44;9.80;;;5.63;;
50968;SDS011;36982;51.474;7.228;2024-01-15T03:51:10;12.83;;;5.87;;
50968;SDS011;36982;51.474;7.228;2024-01-15T03:53:35;10.50;;;5.93;;
50968;SDS011;36982;51.474;7.228;2024-01-15T03:56:03;11.13;;;5.53;;
50968;SDS011;36982;51.474;7.228;2024-01-15T03:58:28;9.37;;;4.47;;
50968;SDS011;36982;51.474;7.228;2024-01-15T04:00:54;12.23;;;5.77;;
50968;SDS011;36982;51.474;7.228;2024-01-15T04:03:19;10.50;;;6.00;;
50968;SDS011;36982;51.474;7.228;2024-01-15T04:05:45;10.97;;;5.60;;
50968;SDS011;36982;51.474;7.228;2024-01-15T04:08:10;12.50;;;5.60;;
50968;SDS011;36982;51.474;7.228;2024-01-15T04:10:36;12.80;;;6.40;;
50968;SDS011;36982;51.474;7.228;2024-01-15T04:13:01;14.43;;;5.57;;
50968;SDS011;36982;51.474;7.228;2024-01-15T04:15:28;10.20;;;5.57;;
50968;SDS011;36982;51.474;7.228;2024-01-15T04:17:54;10.93;;;6.27;;
50968;SDS011;36982;51.474;7.228;2024-01-15T04:20:19;12.20;;;6.10;;
50968;SDS011;36982;51.474;7.228;2024-01-15T04:22:45;10.00;;;6.00;;
50968;SDS011;36982;51.474;7.228;2024-01-15T04:25:10;11.87;;;6.53;;
50968;SDS011;36982;51.474;7.228;2024-01-15T04:27:36;11.87;;;6.47;;
50968;SDS011;36982;51.474;7.228;2024-01-15T04:30:01;10.90;;;6.67;;
50968;SDS011;36982;51.474;7.228;2024-01-15T04:32:27;13.67;;;6.93;;
50968;SDS011;36982;51.474;7.228;2024-01-15T04:34:53;11.77;;;6.13;;
50968;SDS011;36982;51.474;7.228;2024-01-15T04:37:18;13.83;;;7.03;;
50968;SDS011;36982;51.474;7.228;2024-01-15T04:39:44;12.90;;;6.70;;
50968;SDS011;36982;51.474;7.228;2024-01-15T04:42:09;13.40;;;7.50;;
50968;SDS011;36982;51.474;7.228;2024-01-15T04:44:35;12.07;;;7.13;;
50968;SDS011;36982;51.474;7.228;2024-01-15T04:47:00;11.80;;;6.93;;
50968;SDS011;36982;51.474;7.228;2024-01-15T04:49:26;11.93;;;7.03;;
50968;SDS011;36982;51.474;7.228;2024-01-15T04:51:52;14.23;;;7.57;;
50968;SDS011;36982;51.474;7.228;2024-01-15T04:54:18;13.73;;;7.13;;
50968;SDS011;36982;51.474;7.228;2024-01-15T04:56:44;12.47;;;7.03;;
50968;SDS011;36982;51.474;7.228;2024-01-15T04:59:10;13.07;;;7.20;;
50968;SDS011;36982;51.474;7.228;2024-01-15T05:01:35;14.57;;;7.53;;
50968;SDS011;36982;51.474;7.228;2024-01-15T05:04:01;12.50;;;7.40;;
50968;SDS011;36982;51.474;7.228;2024-01-15T05:06:27;11.47;;;7.63;;
50968;SDS011;36982;51.474;7.228;2024-01-15T05:08:53;14.17;;;7.63;;
50968;SDS011;36982;51.474;7.228;2024-01-15T05:11:18;12.00;;;7.83;;
50968;SDS011;36982;51.474;7.228;2024-01-15T05:13:44;13.50;;;7.40;;
50968;SDS011;36982;51.474;7.228;2024-01-15T05:16:09;15.17;;;8.20;;
50968;SDS011;36982;51.474;7.228;2024-01-15T05:18:35;13.97;;;7.10;;
50968;SDS011;36982;51.474;7.228;2024-01-15T05:21:02;17.07;;;7.90;;
50968;SDS011;36982;51.474;7.228;2024-01-15T05:23:28;12.83;;;5.87;;
50968;SDS011;36982;51.474;7.228;2024-01-15T05:25:54;14.17;;;7.40;;
50968;SDS011;36982;51.474;7.228;2024-01-15T05:28:19;12.50;;;7.40;;
50968;SDS011;36982;51.474;7.228;2024-01-15T05:30:45;10.83;;;6.60;;
50968;SDS011;36982;51.474;7.228;2024-01-15T05:33:10;11.60;;;7.07;;
50968;SDS011;36982;51.474;7.228;2024-01-15T05:35:36;14.03;;;7.87;;
50968;SDS011;36982;51.474;7.228;2024-01-15T05:38:01;10.60;;;6.63;;
50968;SDS011;36982;51.474;7.228;2024-01-15T05:40:27;14.70;;;7.70;;
50968;SDS011;36982;51.474;7.228;2024-01-15T05:42:53;16.83;;;7.70;;
50968;SDS011;36982;51.474;7.228;2024-01-15T05:45:19;12.13;;;6.60;;
50968;SDS011;36982;51.474;7.228;2024-01-15T05:47:44;10.80;;;7.07;;
50968;SDS011;36982;51.474;7.228;2024-01-15T05:50:10;9.80;;;5.47;;
50968;SDS011;36982;51.474;7.228;2024-01-15T05:52:35;10.07;;;5.17;;
50968;SDS011;36982;51.474;7.228;2024-01-15T05:55:01;9.10;;;6.57;;
50968;SDS011;36982;51.474;7.228;2024-01-15T05:57:27;9.90;;;6.03;;
50968;SDS011;36982;51.474;7.228;2024-01-15T05:59:53;17.27;;;7.43;;
50968;SDS011;36982;51.474;7.228;2024-01-15T06:02:18;11.77;;;7.10;;
50968;SDS011;36982;51.474;7.228;2024-01-15T06:04:44;12.60;;;6.97;;
50968;SDS011;36982;51.474;7.228;2024-01-15T06:07:10;9.90;;;6.10;;
50968;SDS011;36982;51.474;7.228;2024-01-15T06:09:35;13.00;;;6.97;;
50968;SDS011;36982;51.474;7.228;2024-01-15T06:12:01;11.60;;;6.30;;
50968;SDS011;36982;51.474;7.228;2024-01-15T06:14:26;13.30;;;6.80;;
50968;SDS011;36982;51.474;7.228;2024-01-15T06:16:52;10.83;;;7.27;;
50968;SDS011;36982;51.474;7.228;2024-01-15T06:19:18;11.47;;;6.57;;
50968;SDS011;36982;51.474;7.228;2024-01-15T06:21:43;12.90;;;6.63;;
50968;SDS011;36982;51.474;7.228;2024-01-15T06:24:09;11.03;;;7.07;;
50968;SDS011;36982;51.474;7.228;2024-01-15T06:26:35;11.10;;;6.80;;
50968;SDS011;36982;51.474;7.228;2024-01-15T06:29:00;10.20;;;6.47;;
50968;SDS011;36982;51.474;7.228;2024-01-15T06:31:27;12.13;;;6.97;;
50968;SDS011;36982;51.474;7.228;2024-01-15T06:33:53;10.33;;;5.93;;
50968;SDS011;36982;51.474;7.228;2024-01-15T06:36:19;10.13;;;6.37;;
50968;SDS011;36982;51.474;7.228;2024-01-15T06:38:44;12.67;;;6.67;;
50968;SDS011;36982;51.474;7.228;2024-01-15T06:41:10;10.70;;;6.50;;
50968;SDS011;36982;51.474;7.228;2024-01-15T06:43:35;10.40;;;6.53;;
50968;SDS011;36982;51.474;7.228;2024-01-15T06:46:01;12.53;;;6.30;;
50968;SDS011;36982;51.474;7.228;2024-01-15T06:48:27;8.90;;;5.90;;
50968;SDS011;36982;51.474;7.228;2024-01-15T06:50:52;9.60;;;6.63;;
50968;SDS011;36982;51.474;7.228;2024-01-15T06:53:18;9.23;;;6.07;;
50968;SDS011;36982;51.474;7.228;2024-01-15T06:55:43;8.60;;;5.87;;
50968;SDS011;36982;51.474;7.228;2024-01-15T06:58:09;11.30;;;7.10;;
50968;SDS011;36982;51.474;7.228;2024-01-15T07:00:35;10.23;;;5.73;;
50968;SDS011;36982;51.474;7.228;2024-01-15T07:03:00;9.73;;;6.60;;
50968;SDS011;36982;51.474;7.228;2024-01-15T07:05:26;11.73;;;6.27;;
50968;SDS011;36982;51.474;7.228;2024-01-15T07:08:01;8.33;;;5.80;;
50968;SDS011;36982;51.474;7.228;2024-01-15T07:10:26;9.27;;;5.80;;
50968;SDS011;36982;51.474;7.228;2024-01-15T07:12:52;9.03;;;5.07;;
50968;SDS011;36982;51.474;7.228;2024-01-15T07:15:18;7.20;;;5.03;;
50968;SDS011;36982;51.474;7.228;2024-01-15T07:17:44;6.50;;;4.47;;
50968;SDS011;36982;51.474;7.228;2024-01-15T07:20:09;8.67;;;4.73;;
50968;SDS011;36982;51.474;7.228;2024-01-15T07:22:35;7.00;;;4.30;;
50968;SDS011;36982;51.474;7.228;2024-01-15T07:25:01;7.13;;;4.00;;
50968;SDS011;36982;51.474;7.228;2024-01-15T07:27:27;6.10;;;3.43;;
50968;SDS011;36982;51.474;7.228;2024-01-15T07:29:53;4.43;;;2.57;;
50968;SDS011;36982;51.474;7.228;2024-01-15T07:32:18;6.80;;;3.20;;
50968;SDS011;36982;51.474;7.228;2024-01-15T07:34:45;4.60;;;3.10;;
50968;SDS011;36982;51.474;7.228;2024-01-15T07:37:11;3.47;;;2.70;;
50968;SDS011;36982;51.474;7.228;2024-01-15T07:39:36;3.17;;;2.40;;
50968;SDS011;36982;51.474;7.228;2024-01-15T07:42:02;5.33;;;2.30;;
50968;SDS011;36982;51.474;7.228;2024-01-15T07:44:27;3.60;;;2.10;;
50968;SDS011;36982;51.474;7.228;2024-01-15T07:46:53;3.13;;;2.10;;
50968;SDS011;36982;51.474;7.228;2024-01-15T07:49:18;3.70;;;2.40;;
50968;SDS011;36982;51.474;7.228;2024-01-15T07:51:44;4.10;;;2.30;;
50968;SDS011;36982;51.474;7.228;2024-01-15T07:54:10;4.33;;;2.20;;
50968;SDS011;36982;51.474;7.228;2024-01-15T07:59:26;3.80;;;2.20;;
50968;SDS011;36982;51.474;7.228;2024-01-15T08:01:52;4.03;;;2.30;;
50968;SDS011;36982;51.474;7.228;2024-01-15T08:04:18;3.63;;;1.97;;
50968;SDS011;36982;51.474;7.228;2024-01-15T08:06:44;5.63;;;1.93;;
50968;SDS011;36982;51.474;7.228;2024-01-15T08:09:10;2.90;;;1.80;;
50968;SDS011;36982;51.474;7.228;2024-01-15T08:11:35;3.57;;;2.20;;
50968;SDS011;36982;51.474;7.228;2024-01-15T08:14:01;4.87;;;1.80;;
50968;SDS011;36982;51.474;7.228;2024-01-15T08:16:27;4.37;;;2.33;;
50968;SDS011;36982;51.474;7.228;2024-01-15T08:18:53;3.50;;;2.47;;
50968;SDS011;36982;51.474;7.228;2024-01-15T08:21:18;5.90;;;3.07;;
50968;SDS011;36982;51.474;7.228;2024-01-15T08:23:44;4.80;;;3.33;;
50968;SDS011;36982;51.474;7.228;2024-01-15T08:26:10;7.77;;;3.60;;
50968;SDS011;36982;51.474;7.228;2024-01-15T08:28:36;9.60;;;4.37;;
50968;SDS011;36982;51.474;7.228;2024-01-15T08:31:03;7.93;;;4.33;;
50968;SDS011;36982;51.474;7.228;2024-01-15T08:33:29;7.47;;;4.83;;
50968;SDS011;36982;51.474;7.228;2024-01-15T08:35:54;6.90;;;4.97;;
50968;SDS011;36982;51.474;7.228;2024-01-15T08:38:20;7.70;;;5.27;;
50968;SDS011;36982;51.474;7.228;2024-01-15T08:40:46;7.47;;;5.00;;
50968;SDS011;36982;51.474;7.228;2024-01-15T08:43:12;7.20;;;5.37;;
50968;SDS011;36982;51.474;7.228;2024-01-15T08:45:38;9.03;;;5.30;;
50968;SDS011;36982;51.474;7.228;2024-01-15T08:48:04;8.17;;;5.03;;
50968;SDS011;36982;51.474;7.228;2024-01-15T08:50:29;7.77;;;5.00;;
50968;SDS011;36982;51.474;7.228;2024-01-15T08:52:56;8.00;;;5.03;;
50968;SDS011;36982;51.474;7.228;2024-01-15T08:55:22;7.20;;;4.57;;
50968;SDS011;36982;51.474;7.228;2024-01-15T08:57:48;7.23;;;4.57;;
50968;SDS011;36982;51.474;7.228;2024-01-15T09:00:14;6.20;;;4.27;;
50968;SDS011;36982;51.474;7.228;2024-01-15T09:02:40;6.27;;;4.23;;
50968;SDS011;36982;51.474;7.228;2024-01-15T09:05:05;5.90;;;4.37;;
50968;SDS011;36982;51.474;7.228;2024-01-15T09:07:32;6.20;;;4.80;;
50968;SDS011;36982;51.474;7.228;2024-01-15T09:09:57;6.47;;;4.70;;
50968;SDS011;36982;51.474;7.228;2024-01-15T09:12:24;6.67;;;4.80;;
50968;SDS011;36982;51.474;7.228;2024-01-15T09:14:53;7.30;;;4.87;;
50968;SDS011;36982;51.474;7.228;2024-01-15T09:17:19;6.77;;;4.83;;
50968;SDS011;36982;51.474;7.228;2024-01-15T09:19:45;6.40;;;5.13;;
50968;SDS011;36982;51.474;7.228;2024-01-15T09:22:12;7.10;;;5.07;;
50968;SDS011;36982;51.474;7.228;2024-01-15T09:24:40;8.77;;;5.60;;
50968;SDS011;36982;51.474;7.228;2024-01-15T09:27:07;8.70;;;6.23;;
50968;SDS011;36982;51.474;7.228;2024-01-15T09:29:32;6.97;;;5.07;;
50968;SDS011;36982;51.474;7.228;2024-01-15T09:31:58;8.63;;;5.10;;
50968;SDS011;36982;51.474;7.228;2024-01-15T09:34:23;7.07;;;4.80;;
50968;SDS011;36982;51.474;7.228;2024-01-15T09:36:49;8.10;;;5.53;;
50968;SDS011;36982;51.474;7.228;2024-01-15T09:39:15;7.63;;;5.77;;
50968;SDS011;36982;51.474;7.228;2024-01-15T09:41:40;8.07;;;5.33;;
50968;SDS011;36982;51.474;7.228;2024-01-15T09:44:06;6.67;;;4.37;;
50968;SDS011;36982;51.474;7.228;2024-01-15T09:46:33;5.47;;;3.87;;
50968;SDS011;36982;51.474;7.228;2024-01-15T09:49:00;7.83;;;3.90;;
50968;SDS011;36982;51.474;7.228;2024-01-15T09:51:27;5.37;;;3.73;;
50968;SDS011;36982;51.474;7.228;2024-01-15T09:53:56;5.30;;;3.50;;
50968;SDS011;36982;51.474;7.228;2024-01-15T09:56:23;5.87;;;3.83;;
50968;SDS011;36982;51.474;7.228;2024-01-15T09:58:49;5.03;;;3.77;;
50968;SDS011;36982;51.474;7.228;2024-01-15T10:01:16;6.63;;;4.17;;
50968;SDS011;36982;51.474;7.228;2024-01-15T10:03:42;5.17;;;3.70;;
50968;SDS011;36982;51.474;7.228;2024-01-15T10:06:08;1.43;;;1.30;;
50968;SDS011;36982;51.474;7.228;2024-01-15T10:08:34;7.47;;;4.80;;
50968;SDS011;36982;51.474;7.228;2024-01-15T10:11:02;6.37;;;4.10;;
50968;SDS011;36982;51.474;7.228;2024-01-15T10:13:29;6.47;;;4.53;;
50968;SDS011;36982;51.474;7.228;2024-01-15T10:15:55;6.70;;;4.50;;
50968;SDS011;36982;51.474;7.228;2024-01-15T10:18:21;6.83;;;4.40;;
50968;SDS011;36982;51.474;7.228;2024-01-15T10:20:47;6.93;;;4.40;;
50968;SDS011;36982;51.474;7.228;2024-01-15T10:23:14;7.57;;;4.37;;
50968;SDS011;36982;51.474;7.228;2024-01-15T10:25:41;6.27;;;4.30;;
50968;SDS011;36982;51.474;7.228;2024-01-15T10:28:07;7.37;;;4.40;;
50968;SDS011;36982;51.474;7.228;2024-01-15T10:30:33;7.10;;;4.50;;
50968;SDS011;36982;51.474;7.228;2024-01-15T10:33:00;6.70;;;4.53;;
50968;SDS011;36982;51.474;7.228;2024-01-15T10:35:27;6.47;;;4.40;;
50968;SDS011;36982;51.474;7.228;2024-01-15T10:38:01;7.10;;;3.83;;
50968;SDS011;36982;51.474;7.228;2024-01-15T10:40:28;5.03;;;3.43;;
50968;SDS011;36982;51.474;7.228;2024-01-15T10:42:54;7.57;;;4.43;;
50968;SDS011;36982;51.474;7.228;2024-01-15T10:45:20;6.67;;;4.07;;
50968;SDS011;36982;51.474;7.228;2024-01-15T10:47:45;6.57;;;3.93;;
50968;SDS011;36982;51.474;7.228;2024-01-15T10:50:11;5.70;;;3.40;;
50968;SDS011;36982;51.474;7.228;2024-01-15T10:52:38;6.53;;;3.30;;
50968;SDS011;36982;51.474;7.228;2024-01-15T10:55:08;6.50;;;3.47;;
50968;SDS011;36982;51.474;7.228;2024-01-15T10:57:35;7.00;;;4.10;;
50968;SDS011;36982;51.474;7.228;2024-01-15T11:00:04;6.87;;;4.17;;
50968;SDS011;36982;51.474;7.228;2024-01-15T11:02:34;6.03;;;3.63;;
50968;SDS011;36982;51.474;7.228;2024-01-15T11:05:01;5.40;;;3.43;;
50968;SDS011;36982;51.474;7.228;2024-01-15T11:07:27;6.57;;;3.50;;
50968;SDS011;36982;51.474;7.228;2024-01-15T11:09:55;5.93;;;4.20;;
50968;SDS011;36982;51.474;7.228;2024-01-15T11:12:23;4.90;;;3.43;;
50968;SDS011;36982;51.474;7.228;2024-01-15T11:14:49;7.03;;;4.00;;
50968;SDS011;36982;51.474;7.228;2024-01-15T11:17:15;8.30;;;3.83;;
50968;SDS011;36982;51.474;7.228;2024-01-15T11:22:08;4.83;;;3.43;;
50968;SDS011;36982;51.474;7.228;2024-01-15T11:24:38;7.37;;;3.90;;
50968;SDS011;36982;51.474;7.228;2024-01-15T11:27:05;4.53;;;3.10;;
50968;SDS011;36982;51.474;7.228;2024-01-15T11:29:33;5.07;;;3.30;;
50968;SDS011;36982;51.474;7.228;2024-01-15T11:37:23;7.13;;;3.83;;
50968;SDS011;36982;51.474;7.228;2024-01-15T11:39:53;5.47;;;3.40;;
50968;SDS011;36982;51.474;7.228;2024-01-15T11:42:20;5.17;;;2.73;;
50968;SDS011;36982;51.474;7.228;2024-01-15T11:44:47;4.43;;;2.97;;
50968;SDS011;36982;51.474;7.228;2024-01-15T11:47:13;6.77;;;3.10;;
50968;SDS011;36982;51.474;7.228;2024-01-15T11:52:15;6.73;;;3.87;;
50968;SDS011;36982;51.474;7.228;2024-01-15T11:54:44;5.43;;;3.17;;
50968;SDS011;36982;51.474;7.228;2024-01-15T11:57:22;4.73;;;2.53;;
50968;SDS011;36982;51.474;7.228;2024-01-15T11:59:58;3.30;;;2.60;;
50968;SDS011;36982;51.474;7.228;2024-01-15T12:02:23;2.43;;;1.97;;
50968;SDS011;36982;51.474;7.228;2024-01-15T12:04:49;2.40;;;1.87;;
50968;SDS011;36982;51.474;7.228;2024-01-15T12:07:15;4.03;;;2.50;;
50968;SDS011;36982;51.474;7.228;2024-01-15T12:09:44;3.40;;;1.77;;
50968;SDS011;36982;51.474;7.228;2024-01-15T12:12:09;4.00;;;2.53;;
50968;SDS011;36982;51.474;7.228;2024-01-15T12:14:42;4.67;;;2.00;;
50968;SDS011;36982;51.474;7.228;2024-01-15T12:17:07;5.37;;;2.10;;
50968;SDS011;36982;51.474;7.228;2024-01-15T12:19:33;8.57;;;2.50;;
50968;SDS011;36982;51.474;7.228;2024-01-15T12:21:59;3.90;;;2.20;;
50968;SDS011;36982;51.474;7.228;2024-01-15T12:24:26;3.70;;;2.13;;
50968;SDS011;36982;51.474;7.228;2024-01-15T12:26:51;3.33;;;2.00;;
50968;SDS011;36982;51.474;7.228;2024-01-15T12:29:17;3.60;;;2.43;;
50968;SDS011;36982;51.474;7.228;2024-01-15T12:31:46;2.43;;;1.80;;
50968;SDS011;36982;51.474;7.228;2024-01-15T12:34:13;5.37;;;2.57;;
50968;SDS011;36982;51.474;7.228;2024-01-15T12:36:39;4.50;;;2.20;;
50968;SDS011;36982;51.474;7.228;2024-01-15T12:39:06;3.13;;;2.30;;
50968;SDS011;36982;51.474;7.228;2024-01-15T12:41:36;3.97;;;2.50;;
50968;SDS011;36982;51.474;7.228;2024-01-15T12:44:03;3.80;;;1.87;;
50968;SDS011;36982;51.474;7.228;2024-01-15T12:46:29;2.40;;;2.07;;
50968;SDS011;36982;51.474;7.228;2024-01-15T12:48:55;4.53;;;2.23;;
50968;SDS011;36982;51.474;7.228;2024-01-15T12:51:24;5.07;;;2.47;;
50968;SDS011;36982;51.474;7.228;2024-01-15T12:53:51;3.27;;;2.00;;
50968;SDS011;36982;51.474;7.228;2024-01-15T12:56:16;3.43;;;2.20;;
50968;SDS011;36982;51.474;7.228;2024-01-15T12:58:42;3.50;;;2.10;;
50968;SDS011;36982;51.474;7.228;2024-01-15T13:01:07;4.30;;;2.43;;
50968;SDS011;36982;51.474;7.228;2024-01-15T13:03:33;3.63;;;2.43;;
50968;SDS011;36982;51.474;7.228;2024-01-15T13:05:58;4.47;;;2.17;;
50968;SDS011;36982;51.474;7.228;2024-01-15T13:08:24;4.70;;;2.33;;
50968;SDS011;36982;51.474;7.228;2024-01-15T13:10:52;4.23;;;2.30;;
50968;SDS011;36982;51.474;7.228;2024-01-15T13:13:21;9.57;;;2.20;;
50968;SDS011;36982;51.474;7.228;2024-01-15T13:15:46;4.50;;;2.10;;
50968;SDS011;36982;51.474;7.228;2024-01-15T13:18:12;2.73;;;1.70;;
50968;SDS011;36982;51.474;7.228;2024-01-15T13:20:38;2.47;;;1.80;;
50968;SDS011;36982;51.474;7.228;2024-01-15T13:23:03;2.70;;;1.93;;
50968;SDS011;36982;51.474;7.228;2024-01-15T13:25:29;2.37;;;1.70;;
50968;SDS011;36982;51.474;7.228;2024-01-15T13:27:54;4.97;;;2.20;;
50968;SDS011;36982;51.474;7.228;2024-01-15T13:30:20;4.37;;;2.40;;
50968;SDS011;36982;51.474;7.228;2024-01-15T13:32:46;4.47;;;2.53;;
50968;SDS011;36982;51.474;7.228;2024-01-15T13:35:12;4.63;;;2.40;;
50968;SDS011;36982;51.474;7.228;2024-01-15T13:37:38;8.90;;;3.00;;
50968;SDS011;36982;51.474;7.228;2024-01-15T13:40:06;7.73;;;3.03;;
50968;SDS011;36982;51.474;7.228;2024-01-15T13:42:34;4.30;;;2.63;;
50968;SDS011;36982;51.474;7.228;2024-01-15T13:45:03;5.83;;;3.00;;
50968;SDS011;36982;51.474;7.228;2024-01-15T13:47:30;4.13;;;2.73;;
50968;SDS011;36982;51.474;7.228;2024-01-15T13:49:56;6.10;;;2.57;;
50968;SDS011;36982;51.474;7.228;2024-01-15T13:52:22;4.77;;;2.30;;
50968;SDS011;36982;51.474;7.228;2024-01-15T13:54:48;4.33;;;2.53;;
50968;SDS011;36982;51.474;7.228;2024-01-15T13:57:14;4.77;;;2.90;;
50968;SDS011;36982;51.474;7.228;2024-01-15T13:59:39;5.87;;;2.40;;
50968;SDS011;36982;51.474;7.228;2024-01-15T14:02:05;3.83;;;2.70;;
50968;SDS011;36982;51.474;7.228;2024-01-15T14:04:30;4.10;;;2.43;;
50968;SDS011;36982;51.474;7.228;2024-01-15T14:06:56;6.27;;;2.63;;
50968;SDS011;36982;51.474;7.228;2024-01-15T14:09:21;6.67;;;2.47;;
50968;SDS011;36982;51.474;7.228;2024-01-15T14:11:47;6.00;;;2.47;;
50968;SDS011;36982;51.474;7.228;2024-01-15T14:14:13;4.57;;;2.00;;
50968;SDS011;36982;51.474;7.228;2024-01-15T14:16:39;4.83;;;2.63;;
50968;SDS011;36982;51.474;7.228;2024-01-15T14:19:05;5.03;;;2.80;;
50968;SDS011;36982;51.474;7.228;2024-01-15T14:21:34;4.67;;;3.07;;
50968;SDS011;36982;51.474;7.228;2024-01-15T14:24:00;3.97;;;2.60;;
50968;SDS011;36982;51.474;7.228;2024-01-15T14:26:26;5.83;;;3.20;;
50968;SDS011;36982;51.474;7.228;2024-01-15T14:28:52;4.03;;;2.87;;
50968;SDS011;36982;51.474;7.228;2024-01-15T14:31:19;5.03;;;2.77;;
50968;SDS011;36982;51.474;7.228;2024-01-15T14:33:45;3.30;;;2.73;;
50968;SDS011;36982;51.474;7.228;2024-01-15T14:36:11;5.57;;;3.03;;
50968;SDS011;36982;51.474;7.228;2024-01-15T14:38:36;6.20;;;3.13;;
50968;SDS011;36982;51.474;7.228;2024-01-15T14:41:02;6.03;;;2.80;;
50968;SDS011;36982;51.474;7.228;2024-01-15T14:43:27;4.50;;;3.07;;
50968;SDS011;36982;51.474;7.228;2024-01-15T14:45:53;4.63;;;3.10;;
50968;SDS011;36982;51.474;7.228;2024-01-15T14:48:18;5.43;;;2.90;;